Valleyfield Airport

CSD3 · Quebec, 加拿大

使用的METAR站距离机场23 NM。
罗盘
风向 的 风向 330° Valleyfield Airport 6/24
风: 4 kt, 2 beaufort

1 kt

4 kt
改变
0 ft 1.000 2.000 3.000 4.000 5.000
没有云
METAR CYUL 250700Z 33004KT 15SM SKC 11/06 A2989 RMK SLP126

METAR Valleyfield Airport - CSD3

Valleyfield Airport是,加拿大中的小机场。 该机场位于纬度45,20893和经度-74,14036。 该机场有一条跑道: 6/24. 该机场的伪ICAO代码为CSD3。 机场在Montreal FIR中。

该航空气象观测是针对蒙特利尔皮埃尔·埃利奥特·特鲁多国际机场在2024年5月25日 03:00, 当地时间进行的。

机场观察

风向为330°,速度为4 kt。

可见度为15 mi。

有没有云。 没有观察到天花板。

温度和风寒是11 °C。 露点为6 °C,相对湿度为72%。 海平面上的气压为29,89 inHg (QNH)。

白天

今天,太阳从05:16升起,在20:30降落。 这适用于Valleyfield Airport,世界夏令时可能有所不同。 当地时间与世界标准时间之间的时差为-4 小时。 夏令时目前正在进行中。

公司介绍

我们没有关于这个机场的公司信息。

体会

到Vliegles.nl去找飞行课程,跳伞和其他飞行体验。 浏览页面,了解Valleyfield Airport附近所有可用的活动。 你也可以使用搜索功能来寻找你所在地附近的特定飞行课程、跳伞或其他飞行体验。

跑道

Id 标题 侧风 逆风 侧风 %
6/24 050°-230° 4 kt 98 %

逆风成分最大的方向会被突出显示,并用于横风计算。 这并不一定意味着这个方向在使用。

乌云

- SKC 没有云

温度 & 天气

温度 11 °C
露点 6 °C
相对湿度 72%
Kp-index 1 (0-9)

评论

SLP126海平面压力为29,90 inHg (29,90 inHg)

白天

日出
05:13 (1:33)
中午
12:51
日落
20:30

小工具

你想在你的网站上有一个关于Valleyfield Airport的当前航空天气(METAR)的小部件吗?

显示HTML代码
报告变更